Time;durP1;ratioP1;P1;durP2;ratioP2;P2;SDS_P1;SDS_P2;PMS_P1;PMS_P2;Temp;Humidity;BMP_temperature;BMP_pressure;BME280_temperature;BME280_humidity;BME280_pressure;Samples;Min_cycle;Max_cycle;Signal;HPM_P1;HPM_P2
2022/08/27 00:00:01;;;;;;;30.00;16.25;;;;;;;19.31;100.00;100615.69;5012958;28;20419;-89
2022/08/27 00:02:35;;;;;;;32.17;16.73;;;;;;;19.40;100.00;100609.25;5013274;28;20427;-89
2022/08/27 00:05:10;;;;;;;33.30;17.17;;;;;;;19.35;100.00;100610.28;5031076;28;20454;-88
2022/08/27 00:07:44;;;;;;;29.38;16.15;;;;;;;19.38;100.00;100613.16;5006989;28;20423;-89
2022/08/27 00:10:21;;;;;;;33.08;17.23;;;;;;;19.29;100.00;100608.88;5029239;28;20426;-89
2022/08/27 00:12:55;;;;;;;35.42;17.10;;;;;;;19.25;100.00;100606.00;5028813;28;20427;-87
2022/08/27 00:15:24;;;;;;;34.97;17.05;;;;;;;19.24;100.00;100607.16;5029643;28;20430;-88
2022/08/27 00:17:57;;;;;;;37.22;17.77;;;;;;;19.18;100.00;100616.78;5012391;28;20430;-87
2022/08/27 00:20:31;;;;;;;38.67;19.48;;;;;;;19.12;100.00;100613.44;5028898;28;20430;-88
2022/08/27 00:23:05;;;;;;;37.17;18.50;;;;;;;19.22;100.00;100606.69;5028704;28;20430;-87
2022/08/27 00:25:38;;;;;;;36.70;18.13;;;;;;;19.07;100.00;100607.31;5013442;28;20886;-90
2022/08/27 00:28:11;;;;;;;36.00;17.70;;;;;;;19.15;100.00;100618.25;5012908;28;20423;-89
2022/08/27 00:30:44;;;;;;;46.72;17.88;;;;;;;19.06;100.00;100605.69;5012700;28;20423;-89
2022/08/27 00:33:19;;;;;;;44.00;19.85;;;;;;;19.15;100.00;100609.97;5026533;28;20431;-88
2022/08/27 00:35:54;;;;;;;37.00;18.52;;;;;;;19.19;100.00;100612.88;5011057;28;20419;-88
2022/08/27 00:38:23;;;;;;;36.63;18.13;;;;;;;19.23;100.00;100613.03;5029443;28;20422;-89
2022/08/27 00:40:57;;;;;;;37.28;18.15;;;;;;;19.21;100.00;100610.59;5028570;28;20422;-88
2022/08/27 00:43:42;;;;;;;32.50;17.73;;;;;;;19.30;100.00;100618.78;5028177;28;20915;-89
2022/08/27 00:46:21;;;;;;;35.05;17.75;;;;;;;19.25;100.00;100617.06;5028784;28;20427;-89
2022/08/27 00:48:52;;;;;;;31.58;17.45;;;;;;;19.19;100.00;100618.41;5030192;28;20399;-87
2022/08/27 00:51:28;;;;;;;34.30;17.63;;;;;;;19.19;100.00;100621.16;5029956;28;20419;-88
2022/08/27 00:53:58;;;;;;;31.85;17.27;;;;;;;19.31;100.00;100625.91;5028332;28;20419;-87
2022/08/27 00:56:37;;;;;;;30.00;17.35;;;;;;;19.22;100.00;100620.47;5028240;28;20431;-87
2022/08/27 00:59:06;;;;;;;35.30;17.23;;;;;;;19.24;100.00;100612.66;5027947;28;20419;-88
2022/08/27 01:02:17;;;;;;;33.40;16.77;;;;;;;19.23;100.00;100624.06;5029902;28;20415;-87
2022/08/27 01:04:29;;;;;;;33.67;16.60;;;;;;;19.17;100.00;100627.00;5010641;28;20434;-89
2022/08/27 01:07:05;;;;;;;30.33;16.88;;;;;;;19.20;100.00;100634.59;5010493;28;20415;-88
2022/08/27 01:09:39;;;;;;;30.40;15.68;;;;;;;19.32;100.00;100638.53;5028264;28;20431;-87
2022/08/27 01:12:13;;;;;;;29.73;16.80;;;;;;;19.23;100.00;100641.41;5028846;28;20435;-87
2022/08/27 01:14:47;;;;;;;32.00;17.10;;;;;;;19.20;100.00;100636.56;5011095;28;20445;-87
2022/08/27 01:17:20;;;;;;;32.20;16.80;;;;;;;19.23;100.00;100643.38;5008777;28;20424;-88
2022/08/27 01:19:51;;;;;;;34.28;17.17;;;;;;;19.13;100.00;100633.56;5006973;28;20913;-90
2022/08/27 01:22:35;;;;;;;32.88;17.23;;;;;;;19.17;100.00;100640.00;5026073;28;20430;-87
2022/08/27 01:25:13;;;;;;;35.70;16.95;;;;;;;19.25;100.00;100643.81;5008251;28;20438;-87
2022/08/27 01:27:47;;;;;;;32.65;17.15;;;;;;;19.18;100.00;100639.66;5029220;28;20429;-87
2022/08/27 01:30:20;;;;;;;32.20;16.93;;;;;;;19.29;100.00;100644.75;5010513;28;20419;-88
2022/08/27 01:32:54;;;;;;;41.65;17.50;;;;;;;19.26;100.00;100640.72;5020740;28;20434;-87
2022/08/27 01:35:23;;;;;;;36.17;17.27;;;;;;;19.24;100.00;100656.00;5022853;28;20431;-86
2022/08/27 01:37:56;;;;;;;35.20;17.67;;;;;;;19.30;100.00;100646.38;5009609;28;20915;-87
2022/08/27 01:40:31;;;;;;;34.28;17.95;;;;;;;19.35;100.00;100651.69;5024130;28;20442;-88
2022/08/27 01:43:04;;;;;;;33.33;16.83;;;;;;;19.35;100.00;100648.94;5025704;28;20998;-86
2022/08/27 01:45:34;;;;;;;33.72;16.25;;;;;;;19.37;100.00;100647.44;5023477;28;20427;-88
2022/08/27 01:48:07;;;;;;;29.90;16.02;;;;;;;19.38;100.00;100651.00;5021033;28;20438;-87
2022/08/27 01:50:42;;;;;;;31.83;14.98;;;;;;;19.28;100.00;100641.19;5028533;28;20434;-89
2022/08/27 01:53:17;;;;;;;26.50;15.48;;;;;;;19.32;100.00;100649.59;5009472;28;20422;-88
2022/08/27 01:55:53;;;;;;;26.60;14.60;;;;;;;19.29;100.00;100644.75;5022421;28;20438;-90
2022/08/27 01:58:29;;;;;;;24.95;13.88;;;;;;;19.28;100.00;100649.47;5025665;28;20458;-88
2022/08/27 02:01:06;;;;;;;24.00;12.77;;;;;;;19.16;100.00;100652.97;5026341;28;20438;-86
2022/08/27 02:03:40;;;;;;;19.65;11.50;;;;;;;19.17;100.00;100649.09;5023428;28;20458;-87
2022/08/27 02:06:14;;;;;;;18.98;11.05;;;;;;;19.18;100.00;100653.47;5026079;28;20452;-87
2022/08/27 02:08:47;;;;;;;20.15;10.80;;;;;;;19.27;100.00;100639.56;5003061;28;20438;-87
2022/08/27 02:11:22;;;;;;;16.63;9.90;;;;;;;19.24;100.00;100643.03;5028041;28;20426;-87
2022/08/27 02:13:55;;;;;;;16.63;8.68;;;;;;;19.16;100.00;100644.72;5025516;28;20439;-86
2022/08/27 02:16:31;;;;;;;15.60;8.45;;;;;;;19.15;100.00;100629.28;5026231;28;20830;-88
2022/08/27 02:19:04;;;;;;;17.13;8.98;;;;;;;19.20;100.00;100637.38;5009219;28;20441;-90
2022/08/27 02:21:37;;;;;;;17.25;9.60;;;;;;;19.22;100.00;100645.28;5013182;28;20432;-90
2022/08/27 02:24:06;;;;;;;17.40;10.07;;;;;;;19.16;100.00;100639.19;5023339;28;20431;-91
2022/08/27 02:26:40;;;;;;;18.27;10.68;;;;;;;19.19;100.00;100638.50;5021102;28;20438;-90
2022/08/27 02:29:13;;;;;;;23.08;11.88;;;;;;;19.15;100.00;100634.81;5027036;28;20808;-91
2022/08/27 02:31:42;;;;;;;23.15;12.48;;;;;;;19.12;100.00;100635.50;5025688;28;20434;-89
2022/08/27 02:34:15;;;;;;;27.45;13.80;;;;;;;19.11;100.00;100633.91;5029175;28;20430;-90
2022/08/27 02:36:48;;;;;;;26.40;13.53;;;;;;;19.13;100.00;100634.34;5028941;28;20449;-85
2022/08/27 02:39:16;;;;;;;32.45;14.50;;;;;;;19.10;100.00;100640.56;5010402;28;20435;-87
2022/08/27 02:41:51;;;;;;;31.92;14.77;;;;;;;19.07;100.00;100632.97;5012254;28;20434;-87
2022/08/27 02:44:24;;;;;;;29.97;15.03;;;;;;;19.10;100.00;100631.47;5028470;28;20447;-89
2022/08/27 02:46:57;;;;;;;34.10;15.15;;;;;;;18.96;100.00;100620.72;5004008;28;20426;-88
2022/08/27 02:49:31;;;;;;;51.33;15.98;;;;;;;19.00;100.00;100629.94;5029260;28;20417;-89
2022/08/27 02:52:04;;;;;;;32.65;15.25;;;;;;;19.03;100.00;100626.50;5028776;28;20431;-86
2022/08/27 02:54:37;;;;;;;30.42;15.75;;;;;;;18.99;100.00;100620.84;5030752;28;20895;-88
2022/08/27 02:57:07;;;;;;;34.83;15.38;;;;;;;19.01;100.00;100624.06;5031451;28;20419;-86
2022/08/27 02:59:40;;;;;;;31.83;15.90;;;;;;;19.02;100.00;100628.44;5027251;28;20422;-88
2022/08/27 03:02:09;;;;;;;30.25;15.77;;;;;;;19.02;100.00;100635.94;5011535;28;20442;-86
2022/08/27 03:04:37;;;;;;;28.52;15.40;;;;;;;18.99;100.00;100629.13;5030706;28;20422;-87
2022/08/27 03:07:05;;;;;;;30.35;15.57;;;;;;;18.96;100.00;100626.22;5028619;28;20437;-87
2022/08/27 03:09:39;;;;;;;31.27;15.57;;;;;;;18.94;100.00;100639.56;5016421;28;20429;-88
2022/08/27 03:12:14;;;;;;;31.88;16.25;;;;;;;18.94;100.00;100637.59;5032234;28;20414;-88
2022/08/27 03:14:48;;;;;;;30.83;15.82;;;;;;;19.00;100.00;100630.75;5031849;28;20423;-88
2022/08/27 03:20:11;;;;;;;33.33;15.68;;;;;;;18.94;100.00;100650.59;5031182;28;20461;-89
2022/08/27 03:22:44;;;;;;;35.93;16.37;;;;;;;18.85;100.00;100642.34;5028822;28;20427;-86
2022/08/27 03:25:13;;;;;;;35.15;16.65;;;;;;;18.90;100.00;100646.91;5029845;28;20415;-89
2022/08/27 03:27:47;;;;;;;33.00;16.50;;;;;;;18.85;100.00;100645.94;5031180;28;20435;-87
2022/08/27 03:30:22;;;;;;;31.38;16.33;;;;;;;18.89;100.00;100648.03;5026790;28;20435;-86
2022/08/27 03:32:56;;;;;;;32.10;16.03;;;;;;;18.90;100.00;100646.91;5026107;28;20791;-87
2022/08/27 03:35:24;;;;;;;33.72;16.33;;;;;;;18.93;100.00;100644.25;5026615;28;20441;-87
2022/08/27 03:37:52;;;;;;;31.77;16.67;;;;;;;18.94;100.00;100640.38;5024720;28;20918;-88
2022/08/27 03:40:20;;;;;;;34.15;15.90;;;;;;;18.93;100.00;100643.47;5025321;28;20443;-89
2022/08/27 03:42:50;;;;;;;35.95;16.30;;;;;;;18.95;100.00;100643.94;5006684;28;20439;-88
2022/08/27 03:45:23;;;;;;;28.75;15.55;;;;;;;18.96;100.00;100645.53;5025772;28;20434;-87
2022/08/27 03:47:56;;;;;;;37.70;16.63;;;;;;;18.99;100.00;100639.38;5026599;28;20442;-86
2022/08/27 03:50:30;;;;;;;31.07;15.20;;;;;;;18.98;100.00;100638.53;5010215;28;20434;-88
2022/08/27 03:52:58;;;;;;;37.33;15.68;;;;;;;18.92;100.00;100639.91;5004953;28;20436;-86
2022/08/27 03:55:31;;;;;;;35.17;15.57;;;;;;;18.97;100.00;100645.19;5012381;28;20446;-87
2022/08/27 03:58:01;;;;;;;36.05;16.23;;;;;;;18.95;100.00;100643.94;5011697;28;20434;-88
2022/08/27 04:00:29;;;;;;;30.75;16.35;;;;;;;18.89;100.00;100646.06;5007907;28;20431;-89
2022/08/27 04:02:57;;;;;;;34.67;16.02;;;;;;;18.86;100.00;100642.03;5028730;28;20433;-88
2022/08/27 04:05:25;;;;;;;30.97;15.03;;;;;;;18.80;100.00;100650.84;5027437;28;20426;-90
2022/08/27 04:07:59;;;;;;;50.92;15.65;;;;;;;18.81;100.00;100652.44;5029696;28;20799;-86
2022/08/27 04:10:32;;;;;;;40.13;15.40;;;;;;;18.75;100.00;100662.06;5028673;28;20419;-87
2022/08/27 04:13:07;;;;;;;35.85;15.30;;;;;;;18.80;100.00;100661.88;5028153;28;20508;-86
2022/08/27 04:15:43;;;;;;;40.08;14.23;;;;;;;18.76;100.00;100664.47;5025657;28;20772;-87
2022/08/27 04:18:17;;;;;;;32.20;14.85;;;;;;;18.75;100.00;100659.31;5029426;28;20436;-89
2022/08/27 04:20:52;;;;;;;34.28;14.73;;;;;;;18.66;100.00;100643.63;5029607;28;20434;-87
2022/08/27 04:23:25;;;;;;;26.93;15.17;;;;;;;18.76;100.00;100658.97;5028787;28;20509;-88
2022/08/27 04:25:58;;;;;;;31.90;14.68;;;;;;;18.80;100.00;100653.59;5024485;28;20425;-88
2022/08/27 04:28:33;;;;;;;27.58;14.90;;;;;;;18.82;100.00;100654.88;5011034;28;20431;-87
2022/08/27 04:31:08;;;;;;;32.50;14.65;;;;;;;18.74;100.00;100650.25;5027582;28;20457;-88
2022/08/27 04:33:41;;;;;;;35.67;15.47;;;;;;;18.65;100.00;100655.81;5024838;28;20950;-88
2022/08/27 04:36:16;;;;;;;27.38;13.77;;;;;;;18.74;100.00;100655.75;5029870;28;20418;-86
2022/08/27 04:38:49;;;;;;;24.80;14.13;;;;;;;18.66;100.00;100657.41;5026213;28;20439;-88
2022/08/27 04:41:25;;;;;;;28.38;14.25;;;;;;;18.69;100.00;100661.47;5028043;28;20430;-88
2022/08/27 04:44:04;;;;;;;24.92;13.68;;;;;;;18.65;100.00;100664.06;5024222;28;20426;-87
2022/08/27 04:46:40;;;;;;;32.13;14.13;;;;;;;18.69;100.00;100667.78;5019548;28;20423;-88
2022/08/27 04:49:14;;;;;;;29.45;13.68;;;;;;;18.66;100.00;100662.94;5024603;28;20439;-89
2022/08/27 04:51:48;;;;;;;30.30;14.02;;;;;;;18.57;100.00;100667.69;5010974;28;20427;-87
2022/08/27 04:54:22;;;;;;;27.45;13.75;;;;;;;18.62;100.00;100670.25;5009688;28;20429;-87
2022/08/27 04:56:55;;;;;;;24.37;14.00;;;;;;;18.68;100.00;100671.69;5028959;28;20423;-87
2022/08/27 04:59:30;;;;;;;23.63;13.23;;;;;;;18.67;100.00;100672.00;5029221;28;20438;-86
2022/08/27 05:02:04;;;;;;;28.48;14.27;;;;;;;18.63;100.00;100674.63;5026147;28;20422;-86
2022/08/27 05:04:39;;;;;;;22.65;13.40;;;;;;;18.58;100.00;100672.06;5026109;28;20790;-86
2022/08/27 05:07:13;;;;;;;24.50;13.30;;;;;;;18.53;100.00;100673.09;5028881;28;20435;-88
2022/08/27 05:09:46;;;;;;;25.08;13.45;;;;;;;18.61;100.00;100676.91;5029963;28;20427;-87
2022/08/27 05:12:19;;;;;;;23.95;13.00;;;;;;;18.65;100.00;100677.06;5010835;28;20935;-88
2022/08/27 05:14:55;;;;;;;27.45;13.48;;;;;;;18.63;100.00;100668.31;5028029;28;20423;-87
2022/08/27 05:17:30;;;;;;;29.10;13.43;;;;;;;18.60;100.00;100677.25;5025835;28;20907;-85
2022/08/27 05:19:58;;;;;;;25.80;13.85;;;;;;;18.57;100.00;100673.19;4998505;28;20421;-86
2022/08/27 05:22:31;;;;;;;32.03;13.50;;;;;;;18.36;100.00;100679.47;5027869;28;20470;-89
2022/08/27 05:25:06;;;;;;;24.97;13.47;;;;;;;18.42;100.00;100673.78;5028597;28;20423;-86
2022/08/27 05:27:35;;;;;;;25.80;13.55;;;;;;;18.43;100.00;100673.44;5020744;28;20419;-90
2022/08/27 05:30:10;;;;;;;24.65;12.98;;;;;;;18.45;100.00;100671.19;5026172;28;20435;-88
2022/08/27 05:32:44;;;;;;;23.98;12.95;;;;;;;18.52;100.00;100676.19;5010042;28;20428;-91
2022/08/27 05:35:18;;;;;;;26.98;13.27;;;;;;;18.56;100.00;100670.78;5029405;28;20422;-86
2022/08/27 05:37:51;;;;;;;29.10;13.57;;;;;;;18.51;100.00;100667.09;5005792;28;20430;-89
2022/08/27 05:40:25;;;;;;;25.20;12.93;;;;;;;18.59;100.00;100668.19;5008789;28;20799;-86
2022/08/27 05:42:58;;;;;;;24.35;12.75;;;;;;;18.62;100.00;100664.75;5026642;28;20435;-85
2022/08/27 05:45:27;;;;;;;21.70;11.77;;;;;;;18.57;100.00;100670.44;5024108;28;20431;-87
2022/08/27 05:48:01;;;;;;;22.23;10.98;;;;;;;18.55;100.00;100671.91;5023844;28;20422;-85
2022/08/27 05:50:29;;;;;;;21.67;11.10;;;;;;;18.52;100.00;100665.94;5011422;28;20441;-91
2022/08/27 05:53:02;;;;;;;21.30;11.52;;;;;;;18.49;100.00;100674.88;5025583;28;20438;-86
2022/08/27 05:55:35;;;;;;;23.42;12.07;;;;;;;18.59;100.00;100670.94;5026651;28;20442;-86
2022/08/27 06:01:03;;;;;;;22.20;11.77;;;;;;;18.66;100.00;100676.72;5007463;28;20423;-86
2022/08/27 06:01:05;;;;;;;28.67;12.90;;;;;;;18.51;100.00;100682.81;5021427;28;20958;-87
2022/08/27 06:03:39;;;;;;;24.30;12.55;;;;;;;18.63;100.00;100680.16;5025095;28;20913;-86
2022/08/27 06:06:13;;;;;;;27.13;14.30;;;;;;;18.61;100.00;100685.16;5028187;28;20456;-90
2022/08/27 06:08:46;;;;;;;28.38;14.13;;;;;;;18.54;100.00;100671.13;5027773;28;20427;-86
2022/08/27 06:11:15;;;;;;;29.13;13.97;;;;;;;18.64;100.00;100686.47;5009260;28;20450;-85
2022/08/27 06:13:43;;;;;;;29.92;14.20;;;;;;;18.75;100.00;100682.16;5021998;28;20436;-88
2022/08/27 06:16:15;;;;;;;27.23;13.30;;;;;;;18.65;100.00;100679.81;5008590;28;20427;-87
2022/08/27 06:18:50;;;;;;;30.08;14.77;;;;;;;18.62;100.00;100680.50;5008838;28;20430;-87
2022/08/27 06:21:24;;;;;;;27.77;14.02;;;;;;;18.54;100.00;100682.16;5027044;28;20890;-87
2022/08/27 06:23:53;;;;;;;32.15;14.60;;;;;;;18.65;100.00;100688.88;5025856;28;21091;-87
2022/08/27 06:26:27;;;;;;;33.55;14.23;;;;;;;18.74;100.00;100696.28;5027957;28;20441;-85
2022/08/27 06:28:56;;;;;;;31.58;14.55;;;;;;;18.65;100.00;100690.84;5029320;28;20423;-84
2022/08/27 06:31:32;;;;;;;40.05;14.40;;;;;;;18.48;100.00;100687.03;5027742;28;20483;-83
2022/08/27 06:34:03;;;;;;;36.80;14.80;;;;;;;18.37;100.00;100694.09;5005051;28;20430;-87
2022/08/27 06:36:31;;;;;;;30.02;14.50;;;;;;;18.55;100.00;100682.94;5009155;28;20958;-84
2022/08/27 06:38:59;;;;;;;31.58;13.75;;;;;;;18.50;100.00;100694.97;5006575;28;20908;-84
2022/08/27 06:41:28;;;;;;;30.50;14.60;;;;;;;18.60;100.00;100693.78;5005954;28;20462;-85
2022/08/27 06:44:09;;;;;;;27.02;13.38;;;;;;;18.65;100.00;100699.91;5007917;28;20415;-85
2022/08/27 06:46:39;;;;;;;31.88;13.60;;;;;;;18.57;100.00;100694.47;5003748;28;20436;-86
2022/08/27 06:49:08;;;;;;;31.20;13.50;;;;;;;18.51;100.00;100699.34;5007647;28;20423;-85
2022/08/27 06:51:44;;;;;;;27.35;12.73;;;;;;;18.62;100.00;100708.06;5028166;28;20910;-84
2022/08/27 06:54:19;;;;;;;25.20;12.70;;;;;;;18.46;100.00;100692.09;5028560;28;20418;-85
2022/08/27 06:56:52;;;;;;;25.73;12.32;;;;;;;18.58;100.00;100701.59;5023099;28;20431;-85
2022/08/27 06:59:20;;;;;;;28.02;12.60;;;;;;;18.68;100.00;100701.19;5024905;28;20454;-84
2022/08/27 07:01:55;;;;;;;23.58;11.93;;;;;;;18.61;100.00;100703.66;5007456;28;20435;-84
2022/08/27 07:04:25;;;;;;;24.50;11.75;;;;;;;18.68;100.00;100703.94;5002900;28;20447;-84
2022/08/27 07:06:59;;;;;;;24.55;11.70;;;;;;;18.60;100.00;100700.13;5004860;28;20427;-88
2022/08/27 07:09:29;;;;;;;25.83;11.82;;;;;;;18.49;100.00;100676.81;5026052;28;20434;-87
2022/08/27 07:11:58;;;;;;;26.95;11.68;;;;;;;18.44;100.00;100693.56;5024344;28;20434;-89
2022/08/27 07:14:32;;;;;;;24.80;11.67;;;;;;;18.42;100.00;100690.31;5024603;28;20431;-87
2022/08/27 07:17:08;;;;;;;25.02;11.77;;;;;;;18.56;100.00;100690.91;5009076;28;20927;-87
2022/08/27 07:19:37;;;;;;;24.15;10.88;;;;;;;18.53;100.00;100695.13;5011473;28;20775;-86
2022/08/27 07:22:11;;;;;;;26.40;10.93;;;;;;;18.43;100.00;100701.00;5031082;28;20923;-86
2022/08/27 07:24:44;;;;;;;22.42;10.68;;;;;;;18.55;100.00;100693.97;5031664;28;20426;-86
2022/08/27 07:27:20;;;;;;;21.23;10.57;;;;;;;18.47;100.00;100699.19;5029046;28;20434;-88
2022/08/27 07:29:53;;;;;;;24.90;11.10;;;;;;;18.26;100.00;100701.91;5009042;28;20915;-89
2022/08/27 07:32:22;;;;;;;21.73;10.70;;;;;;;18.48;100.00;100706.34;5014497;28;20423;-83
2022/08/27 07:34:56;;;;;;;22.90;10.80;;;;;;;18.43;100.00;100716.75;5027278;28;20436;-82
2022/08/27 07:37:24;;;;;;;21.25;9.95;;;;;;;18.46;100.00;100716.06;5027649;28;20422;-80
2022/08/27 07:39:52;;;;;;;19.58;9.20;;;;;;;18.48;100.00;100713.81;5025846;28;20783;-83
2022/08/27 07:45:16;;;;;;;24.25;9.25;;;;;;;18.47;100.00;100724.00;5002176;28;20434;-82
2022/08/27 07:47:52;;;;;;;20.55;8.45;;;;;;;18.31;100.00;100722.94;5009969;28;20444;-82
2022/08/27 07:50:25;;;;;;;17.20;8.40;;;;;;;18.38;100.00;100730.69;5026681;28;20435;-85
2022/08/27 07:52:58;;;;;;;16.10;7.90;;;;;;;18.16;100.00;100732.56;5008587;28;20811;-84
2022/08/27 07:55:32;;;;;;;17.17;8.65;;;;;;;18.21;100.00;100732.38;5013273;28;20427;-84
2022/08/27 07:58:05;;;;;;;15.02;7.97;;;;;;;18.29;100.00;100737.06;5011126;28;20431;-89
2022/08/27 08:00:34;;;;;;;14.65;7.57;;;;;;;18.39;100.00;100737.84;5030956;28;20911;-91
2022/08/27 08:03:06;;;;;;;15.20;7.57;;;;;;;18.21;100.00;100737.91;5030187;28;20451;-87
2022/08/27 08:05:41;;;;;;;18.30;7.57;;;;;;;18.45;100.00;100740.06;5030049;28;20438;-92
2022/08/27 08:08:15;;;;;;;15.05;7.55;;;;;;;18.41;100.00;100736.38;5013654;28;20431;-88
2022/08/27 08:10:44;;;;;;;14.07;7.35;;;;;;;18.41;100.00;100744.63;5023333;28;20428;-93
2022/08/27 08:13:19;;;;;;;13.40;6.80;;;;;;;18.40;100.00;100748.53;5011486;28;20438;-89
2022/08/27 08:15:48;;;;;;;13.20;6.40;;;;;;;18.29;100.00;100723.28;5029218;28;20438;-91
2022/08/27 08:18:30;;;;;;;13.57;6.80;;;;;;;18.46;100.00;100732.59;5029202;28;20823;-92
2022/08/27 08:21:03;;;;;;;13.85;6.55;;;;;;;18.62;100.00;100752.94;5029522;28;20542;-90
2022/08/27 08:23:37;;;;;;;12.80;6.32;;;;;;;18.62;100.00;100744.69;5009366;28;20435;-92
2022/08/27 08:26:12;;;;;;;14.80;7.30;;;;;;;18.34;100.00;100714.03;5028576;28;20426;-92
2022/08/27 08:28:48;;;;;;;14.18;6.72;;;;;;;18.29;100.00;100728.78;5013543;28;20517;-92
2022/08/27 08:31:17;;;;;;;13.27;6.70;;;;;;;18.18;100.00;100725.59;5008999;28;20440;-91
2022/08/27 08:33:47;;;;;;;13.98;6.80;;;;;;;18.44;100.00;100768.75;5010021;28;20754;-92
2022/08/27 08:36:20;;;;;;;14.20;7.25;;;;;;;18.57;100.00;100766.09;5017166;28;20427;-92
2022/08/27 08:38:55;;;;;;;14.30;7.45;;;;;;;18.31;100.00;100729.28;5012962;28;20637;-92
2022/08/27 08:41:40;;;;;;;13.73;7.20;;;;;;;18.36;100.00;100762.13;5022622;28;20942;-92
2022/08/27 08:44:25;;;;;;;16.23;7.40;;;;;;;18.10;100.00;100737.44;5014752;28;20919;-90
2022/08/27 08:47:02;;;;;;;13.48;7.00;;;;;;;18.46;100.00;100782.19;5025726;28;20438;-91
2022/08/27 08:49:50;;;;;;;14.38;7.45;;;;;;;18.21;100.00;100778.41;5028474;28;20427;-92
2022/08/27 08:52:32;;;;;;;14.45;7.30;;;;;;;18.02;100.00;100763.91;5027018;28;20446;-89
2022/08/27 08:55:13;;;;;;;13.88;7.25;;;;;;;17.97;100.00;100782.53;5030146;28;20893;-90
2022/08/27 08:57:53;;;;;;;15.55;7.70;;;;;;;17.96;100.00;100773.44;5007476;28;20429;-94
2022/08/27 09:00:27;;;;;;;15.20;7.18;;;;;;;18.18;100.00;100788.94;5014987;28;20418;-93
2022/08/27 09:03:00;;;;;;;15.80;8.05;;;;;;;18.09;100.00;100773.59;5028155;28;20431;-91
2022/08/27 09:05:37;;;;;;;15.48;7.88;;;;;;;18.24;100.00;100800.59;5010805;28;20938;-92
2022/08/27 09:08:12;;;;;;;18.60;8.20;;;;;;;17.97;100.00;100760.50;5019596;28;20429;-92
2022/08/27 09:10:44;;;;;;;17.10;8.70;;;;;;;17.99;100.00;100774.75;5013797;28;20428;-90
2022/08/27 09:13:29;;;;;;;17.35;8.55;;;;;;;18.00;100.00;100798.41;5031807;28;20430;-94
2022/08/27 09:16:04;;;;;;;18.98;8.88;;;;;;;18.09;100.00;100798.38;5036305;28;20431;-91
2022/08/27 09:18:40;;;;;;;15.70;8.13;;;;;;;18.07;100.00;100801.44;5013792;28;20449;-94
2022/08/27 09:21:25;;;;;;;19.15;9.02;;;;;;;18.06;100.00;100801.78;5028595;28;20438;-91
2022/08/27 09:24:06;;;;;;;16.10;8.75;;;;;;;18.09;100.00;100804.72;5027607;28;20458;-91
2022/08/27 09:26:42;;;;;;;19.00;8.48;;;;;;;18.10;100.00;100791.72;5036035;28;20502;-88
2022/08/27 09:29:20;;;;;;;15.73;8.27;;;;;;;17.99;100.00;100797.59;5017398;28;20791;-92
2022/08/27 09:31:57;;;;;;;17.80;8.98;;;;;;;18.14;100.00;100800.97;5030541;28;20430;-93
2022/08/27 09:34:35;;;;;;;17.55;8.07;;;;;;;17.89;100.00;100758.56;5033545;28;20931;-91
2022/08/27 09:37:15;;;;;;;15.95;7.93;;;;;;;18.26;100.00;100803.84;5011655;28;20435;-87
2022/08/27 09:39:51;;;;;;;19.67;9.18;;;;;;;18.09;100.00;100803.88;5028342;28;20434;-88
2022/08/27 09:42:30;;;;;;;14.57;7.57;;;;;;;18.06;100.00;100808.09;5027936;28;20439;-90
2022/08/27 09:44:58;;;;;;;15.15;7.63;;;;;;;18.04;100.00;100798.56;5022239;28;20419;-93
2022/08/27 09:47:27;;;;;;;15.02;7.93;;;;;;;18.02;100.00;100798.88;5026689;28;20496;-86
2022/08/27 09:50:07;;;;;;;16.10;8.10;;;;;;;17.81;100.00;100793.22;5022388;28;21250;-88
2022/08/27 09:52:47;;;;;;;19.80;9.05;;;;;;;17.81;100.00;100807.78;5001163;28;20442;-89
2022/08/27 09:55:30;;;;;;;19.08;8.88;;;;;;;17.92;100.00;100805.53;5000610;28;20454;-84
2022/08/27 09:57:59;;;;;;;17.23;8.35;;;;;;;18.04;100.00;100802.13;5004265;28;21324;-85
2022/08/27 10:00:35;;;;;;;18.40;8.63;;;;;;;17.98;100.00;100808.91;4999705;28;20440;-86
2022/08/27 10:03:05;;;;;;;16.70;9.63;;;;;;;17.99;100.00;100805.88;5021876;28;20767;-86
2022/08/27 10:05:42;;;;;;;20.05;8.98;;;;;;;18.01;100.00;100809.09;5017185;28;20430;-88
2022/08/27 10:08:23;;;;;;;18.85;9.30;;;;;;;17.94;100.00;100807.94;5001443;28;20523;-87
2022/08/27 10:10:59;;;;;;;19.52;9.23;;;;;;;17.87;100.00;100813.13;4997338;28;20902;-88
2022/08/27 10:13:39;;;;;;;17.73;9.15;;;;;;;17.89;100.00;100814.41;4993473;28;21383;-86
2022/08/27 10:16:39;;;;;;;19.33;9.60;;;;;;;17.91;100.00;100814.94;5013342;28;20455;-85
2022/08/27 10:19:24;;;;;;;17.67;8.93;;;;;;;17.96;100.00;100817.50;4998882;28;20969;-88
2022/08/27 10:22:07;;;;;;;29.05;11.13;;;;;;;17.87;100.00;100813.13;4999471;28;20862;-86
2022/08/27 10:24:47;;;;;;;20.30;10.23;;;;;;;18.00;100.00;100809.41;5011237;28;20780;-86
2022/08/27 10:27:22;;;;;;;21.20;10.48;;;;;;;18.10;100.00;100805.50;5029123;28;20426;-85
2022/08/27 10:30:02;;;;;;;19.48;10.90;;;;;;;18.01;100.00;100802.78;5031006;28;20415;-86
2022/08/27 10:32:46;;;;;;;25.40;11.00;;;;;;;17.98;100.00;100808.91;5034519;28;20414;-87
2022/08/27 10:35:22;;;;;;;22.33;10.90;;;;;;;18.00;100.00;100815.72;5029329;28;20953;-87
2022/08/27 10:38:10;;;;;;;22.75;11.35;;;;;;;18.00;100.00;100801.94;5027229;28;20415;-87
2022/08/27 10:40:52;;;;;;;25.80;11.47;;;;;;;18.21;100.00;100814.22;5025559;28;20423;-87
2022/08/27 10:43:57;;;;;;;23.00;11.37;;;;;;;18.23;100.00;100810.00;5010741;28;20430;-86
2022/08/27 10:46:47;;;;;;;23.35;11.48;;;;;;;18.31;100.00;100817.44;5009790;28;20927;-84
2022/08/27 10:49:31;;;;;;;21.67;11.02;;;;;;;18.01;100.00;100819.31;5010725;28;20942;-85
2022/08/27 10:52:17;;;;;;;22.52;11.00;;;;;;;18.04;100.00;100812.34;4999867;28;20437;-85
2022/08/27 10:54:58;;;;;;;18.97;10.63;;;;;;;18.13;100.00;100813.09;5014708;28;20929;-86
2022/08/27 10:57:46;;;;;;;22.20;11.27;;;;;;;18.08;100.00;100821.56;5004240;28;20423;-86
2022/08/27 11:00:22;;;;;;;25.27;11.40;;;;;;;18.08;100.00;100818.81;5030535;28;20427;-84
2022/08/27 11:03:05;;;;;;;20.60;11.50;;;;;;;18.01;100.00;100819.31;5014645;28;20442;-85
2022/08/27 11:05:40;;;;;;;21.63;11.18;;;;;;;18.08;100.00;100818.81;5031894;28;20433;-86
2022/08/27 11:08:19;;;;;;;26.45;10.95;;;;;;;18.11;100.00;100823.66;5014387;28;20423;-84
2022/08/27 11:10:57;;;;;;;24.05;10.90;;;;;;;18.17;100.00;100816.81;5014351;28;20430;-84
2022/08/27 11:13:32;;;;;;;21.83;10.57;;;;;;;18.25;100.00;100813.22;5014810;28;20426;-83
2022/08/27 11:16:07;;;;;;;19.98;9.73;;;;;;;18.45;100.00;100821.91;5035642;28;20423;-83
2022/08/27 11:18:47;;;;;;;30.02;9.45;;;;;;;18.35;100.00;100815.66;5032255;28;20454;-81
2022/08/27 11:21:22;;;;;;;19.88;9.68;;;;;;;18.52;100.00;100811.22;5027463;28;20795;-82
2022/08/27 11:23:57;;;;;;;22.40;9.57;;;;;;;18.44;100.00;100817.56;5013581;28;20783;-82
2022/08/27 11:26:33;;;;;;;18.52;9.25;;;;;;;18.64;100.00;100821.53;5034150;28;20783;-81
2022/08/27 11:29:18;;;;;;;19.05;10.05;;;;;;;18.69;100.00;100824.91;5032733;28;20419;-81
2022/08/27 11:32:00;;;;;;;19.35;9.30;;;;;;;18.69;100.00;100821.34;5034249;28;20415;-80
2022/08/27 11:34:39;;;;;;;20.13;10.52;;;;;;;18.44;100.00;100825.81;5016249;28;20442;-81
2022/08/27 11:37:47;;;;;;;22.13;10.65;;;;;;;18.29;100.00;100822.47;5034318;28;20433;-84
2022/08/27 11:40:32;;;;;;;21.95;10.55;;;;;;;18.33;100.00;100820.66;5015925;28;20899;-79
2022/08/27 11:43:05;;;;;;;20.15;10.63;;;;;;;18.23;100.00;100809.19;5007988;28;20423;-80